YBPN

Details ICAO YBPN (PPP)
Name Proserpine Whitsunday Coast
Region Australia
Timezone Australia/Brisbane (UTC+10.0)
Plans Departing 10
Arriving 25
Stats Elevation 82 ft / 25 m (AMSL)
Location -20.493332° 148.557010°
Runways 2
Magnetic Variation 8.075° E
Sunrise 2018-05-22 20:32:11 UTC / 2018-05-23 06:32:11 Local
Sunset 2018-05-23 07:35:38 UTC / 2018-05-23 17:35:38 Local
Advertisement - Login to hide

Runways

ID Width Length Bearing (true) Bearing (mag) Surface Threshold Offset Overrun Length
06 98 ft / 30 m 4,104 ft / 1,251 m 67.07° 59.00° Asphalt 0 ft / 0 m 0 ft / 0 m
11 148 ft / 45 m 6,802 ft / 2,073 m 114.60° 106.53° Asphalt 0 ft / 0 m 0 ft / 0 m
24 98 ft / 30 m 4,104 ft / 1,251 m 247.07° 239.00° Asphalt 0 ft / 0 m 0 ft / 0 m
29 148 ft / 45 m 6,802 ft / 2,073 m 294.60° 286.53° Asphalt 0 ft / 0 m 230 ft / 70 m

Map

Weather


0- 5 10 15 20 25 30 35+ Temperature / ° C

Clouds and Precipitation
Forecast for 2018-05-22 18:00 UTC. Updated 5 hours ago

Ground ~20,000 ft ~40,000 ft Winds

METAR

YBPN 222100Z AUTO 00000KT 9999 // NCD 08/07 Q1020

TAF

Not found

Frequencies

Unicom 126.70 MHz CTAF
Warning: Do not use this data for real-world aviation or navigation. No guarantee of current accuracy is given.